Time;durP1;ratioP1;P1;durP2;ratioP2;P2;SDS_P1;SDS_P2;PMS_P1;PMS_P2;Temp;Humidity;BMP_temperature;BMP_pressure;BME280_temperature;BME280_humidity;BME280_pressure;Samples;Min_cycle;Max_cycle;Signal;HPM_P1;HPM_P2
2022/04/03 00:01:34;;;;;;;21.93;17.70;;;-0.20;99.90;;;;;;5013749;28;20105;-75
2022/04/03 00:04:00;;;;;;;20.37;17.53;;;-0.10;99.90;;;;;;5014880;28;20045;-76
2022/04/03 00:06:25;;;;;;;22.00;18.37;;;-0.10;99.90;;;;;;5015011;28;20117;-76
2022/04/03 00:08:51;;;;;;;21.07;17.60;;;-0.20;99.90;;;;;;5013716;28;20026;-75
2022/04/03 00:11:16;;;;;;;21.37;18.63;;;-0.20;99.90;;;;;;5014846;28;20028;-76
2022/04/03 00:13:43;;;;;;;24.93;19.20;;;-0.10;99.90;;;;;;5014846;28;20109;-76
2022/04/03 00:16:09;;;;;;;21.00;17.33;;;-0.20;99.90;;;;;;5014717;28;20076;-76
2022/04/03 00:18:34;;;;;;;21.57;18.37;;;-0.10;99.90;;;;;;5015222;28;20026;-76
2022/04/03 00:21:00;;;;;;;21.40;18.00;;;-0.10;99.90;;;;;;5013438;28;20403;-76
2022/04/03 00:23:27;;;;;;;21.90;18.77;;;-0.10;99.90;;;;;;4998883;28;20357;-76
2022/04/03 00:25:53;;;;;;;21.73;18.40;;;-0.10;99.90;;;;;;4995396;28;20029;-76
2022/04/03 00:28:20;;;;;;;23.20;18.83;;;-0.10;99.90;;;;;;4993646;28;20026;-76
2022/04/03 00:30:45;;;;;;;21.90;18.27;;;-0.10;99.90;;;;;;4995242;28;20030;-75
2022/04/03 00:33:12;;;;;;;22.23;18.97;;;-0.20;99.90;;;;;;4994883;28;20046;-75
2022/04/03 00:35:38;;;;;;;21.57;18.07;;;-0.20;99.90;;;;;;5010741;28;20142;-76
2022/04/03 00:38:03;;;;;;;22.90;18.07;;;-0.20;99.90;;;;;;5013150;28;20119;-76
2022/04/03 00:40:29;;;;;;;20.67;17.37;;;-0.20;99.90;;;;;;5014225;28;20112;-76
2022/04/03 00:42:55;;;;;;;22.97;17.77;;;-0.20;99.90;;;;;;5014094;28;20026;-76
2022/04/03 00:45:21;;;;;;;23.60;18.97;;;-0.30;99.90;;;;;;5029000;28;20411;-76
2022/04/03 00:47:54;;;;;;;22.70;19.27;;;-0.30;99.90;;;;;;5029028;28;20367;-76
2022/04/03 00:50:20;;;;;;;24.30;18.53;;;-0.30;99.90;;;;;;5013005;28;20099;-76
2022/04/03 00:52:46;;;;;;;21.67;18.37;;;-0.40;99.90;;;;;;5013787;28;20107;-76
2022/04/03 00:55:12;;;;;;;21.67;17.97;;;-0.40;99.90;;;;;;5013848;28;20025;-76
2022/04/03 00:57:38;;;;;;;23.03;18.97;;;-0.40;99.90;;;;;;5013388;28;20120;-76
2022/04/03 01:00:05;;;;;;;23.30;19.93;;;-0.30;99.90;;;;;;5013135;28;20431;-76
2022/04/03 01:02:31;;;;;;;23.33;18.67;;;-0.40;99.90;;;;;;5013348;28;20025;-76
2022/04/03 01:04:57;;;;;;;24.00;19.73;;;-0.40;99.90;;;;;;5013735;28;20098;-76
2022/04/03 01:07:23;;;;;;;23.00;18.87;;;-0.40;99.90;;;;;;5013648;28;20044;-76
2022/04/03 01:09:50;;;;;;;25.60;20.50;;;-0.30;99.90;;;;;;5013053;28;20053;-76
2022/04/03 01:12:16;;;;;;;29.20;21.10;;;-0.40;99.90;;;;;;5013671;28;20087;-76
2022/04/03 01:14:43;;;;;;;24.90;20.87;;;-0.50;99.90;;;;;;5028431;28;20029;-76
2022/04/03 01:17:12;;;;;;;26.33;21.53;;;-0.40;99.90;;;;;;5013341;28;20434;-76
2022/04/03 01:19:38;;;;;;;25.67;20.63;;;-0.50;99.90;;;;;;5012790;28;20050;-76
2022/04/03 01:22:04;;;;;;;27.63;22.03;;;-0.50;99.90;;;;;;5010581;28;20092;-76
2022/04/03 01:24:30;;;;;;;30.07;21.57;;;-0.50;99.90;;;;;;5005673;28;20486;-76
2022/04/03 01:26:56;;;;;;;28.90;23.20;;;-0.50;99.90;;;;;;4993101;28;20105;-76
2022/04/03 01:29:23;;;;;;;29.50;22.10;;;-0.50;99.90;;;;;;5005305;28;20033;-76
2022/04/03 01:31:49;;;;;;;29.67;23.80;;;-0.60;99.90;;;;;;5011708;28;20054;-76
2022/04/03 01:34:16;;;;;;;27.10;21.77;;;-0.60;99.90;;;;;;5012796;28;20112;-76
2022/04/03 01:36:43;;;;;;;27.37;21.83;;;-0.60;99.90;;;;;;5012012;28;20026;-77
2022/04/03 01:39:12;;;;;;;26.63;20.93;;;-0.60;99.90;;;;;;5012849;28;20459;-76
2022/04/03 01:41:38;;;;;;;27.30;22.10;;;-0.60;99.90;;;;;;5012732;28;20414;-76
2022/04/03 01:44:06;;;;;;;30.37;23.43;;;-0.60;99.90;;;;;;5011049;28;20022;-76
2022/04/03 01:46:31;;;;;;;28.57;21.40;;;-0.60;99.90;;;;;;5012657;28;20022;-76
2022/04/03 01:48:57;;;;;;;24.20;18.93;;;-0.50;99.90;;;;;;5012133;28;20030;-76
2022/04/03 01:51:22;;;;;;;26.93;19.97;;;-0.60;99.90;;;;;;5012078;28;20042;-76
2022/04/03 01:53:48;;;;;;;30.57;23.40;;;-0.60;99.90;;;;;;5010980;28;20049;-76
2022/04/03 01:56:14;;;;;;;26.83;21.97;;;-0.60;99.90;;;;;;5011980;28;20102;-76
2022/04/03 01:58:39;;;;;;;25.30;21.30;;;-0.60;99.90;;;;;;5011674;28;20509;-76
2022/04/03 02:01:05;;;;;;;25.70;21.43;;;-0.60;99.90;;;;;;5011640;28;20045;-76
2022/04/03 02:03:31;;;;;;;27.90;22.63;;;-0.70;99.90;;;;;;5024137;28;20101;-77
2022/04/03 02:05:57;;;;;;;25.17;20.07;;;-0.60;99.90;;;;;;4992509;28;20049;-76
2022/04/03 02:08:23;;;;;;;25.20;21.27;;;-0.60;99.90;;;;;;4991414;28;20023;-76
2022/04/03 02:10:48;;;;;;;24.60;20.03;;;-0.60;99.90;;;;;;4996454;28;20044;-76
2022/04/03 02:13:14;;;;;;;25.63;20.10;;;-0.60;99.90;;;;;;5011970;28;20542;-77
2022/04/03 02:15:40;;;;;;;24.43;20.03;;;-0.60;99.90;;;;;;5010599;28;20036;-76
2022/04/03 02:18:05;;;;;;;23.53;19.17;;;-0.60;99.90;;;;;;5011736;28;20112;-76
2022/04/03 02:20:34;;;;;;;22.47;17.90;;;-0.60;99.90;;;;;;5010097;28;20033;-76
2022/04/03 02:23:00;;;;;;;23.10;18.57;;;-0.60;99.90;;;;;;5005658;28;20065;-77
2022/04/03 02:25:25;;;;;;;24.27;17.97;;;-0.60;99.90;;;;;;4992321;28;20058;-77
2022/04/03 02:27:54;;;;;;;23.07;18.53;;;-0.60;99.90;;;;;;4992097;28;20479;-77
2022/04/03 02:30:20;;;;;;;22.40;18.90;;;-0.60;99.90;;;;;;4991895;28;20038;-77
2022/04/03 02:32:45;;;;;;;22.40;18.77;;;-0.60;99.90;;;;;;4995019;28;20069;-77
2022/04/03 02:35:13;;;;;;;23.73;18.33;;;-0.50;99.90;;;;;;5014700;28;20040;-76
2022/04/03 02:37:41;;;;;;;23.27;18.27;;;-0.40;99.90;;;;;;5014283;28;20075;-76
2022/04/03 02:40:08;;;;;;;22.13;18.70;;;-0.40;99.90;;;;;;5015610;28;20030;-76
2022/04/03 02:42:34;;;;;;;25.97;20.07;;;-0.40;99.90;;;;;;5016236;28;20472;-77
2022/04/03 02:44:59;;;;;;;26.50;20.93;;;-0.50;99.90;;;;;;5015553;28;20064;-77
2022/04/03 02:47:25;;;;;;;27.47;21.00;;;-0.60;99.90;;;;;;5013985;28;20026;-77
2022/04/03 02:49:51;;;;;;;29.67;21.60;;;-0.60;99.90;;;;;;5026612;28;20041;-77
2022/04/03 02:52:18;;;;;;;28.23;21.47;;;-0.60;99.90;;;;;;4995885;28;20030;-77
2022/04/03 02:54:45;;;;;;;29.80;22.27;;;-0.60;99.90;;;;;;5015020;28;20387;-77
2022/04/03 02:57:11;;;;;;;28.47;21.67;;;-0.70;99.90;;;;;;5015665;28;20026;-77
2022/04/03 02:59:37;;;;;;;31.73;23.53;;;-0.70;99.90;;;;;;5015157;28;20387;-77
2022/04/03 03:02:02;;;;;;;30.90;23.40;;;-0.70;99.90;;;;;;5015534;28;20026;-77
2022/04/03 03:04:28;;;;;;;35.03;25.73;;;-0.70;99.90;;;;;;5015148;28;20435;-77
2022/04/03 03:06:54;;;;;;;32.30;22.93;;;-0.70;99.90;;;;;;5004713;28;20053;-77
2022/04/03 03:09:19;;;;;;;30.87;22.40;;;-0.70;99.90;;;;;;4995549;28;20034;-77
2022/04/03 03:11:45;;;;;;;30.03;23.07;;;-0.70;99.90;;;;;;4994033;28;20391;-76
2022/04/03 03:14:11;;;;;;;29.87;22.73;;;-0.70;99.90;;;;;;4994386;28;20798;-76
2022/04/03 03:16:36;;;;;;;27.57;21.87;;;-0.80;99.90;;;;;;5000128;28;20467;-76
2022/04/03 03:19:02;;;;;;;28.20;20.87;;;-0.60;99.90;;;;;;5014986;28;20036;-76
2022/04/03 03:21:28;;;;;;;26.80;20.97;;;-0.70;99.90;;;;;;5014367;28;20488;-76
2022/04/03 03:23:53;;;;;;;27.53;21.57;;;-0.60;99.90;;;;;;5003085;28;20054;-76
2022/04/03 03:26:20;;;;;;;32.37;22.67;;;-0.60;99.90;;;;;;5014570;28;20022;-76
2022/04/03 03:28:46;;;;;;;29.17;22.53;;;-0.70;99.90;;;;;;5014737;28;20028;-77
2022/04/03 03:31:11;;;;;;;30.53;21.93;;;-0.70;99.90;;;;;;5012657;28;20033;-76
2022/04/03 03:33:37;;;;;;;29.63;21.97;;;-0.60;99.90;;;;;;5029480;28;20030;-76
2022/04/03 03:36:04;;;;;;;30.37;22.17;;;-0.60;99.90;;;;;;5013088;28;20045;-76
2022/04/03 03:38:29;;;;;;;29.30;22.03;;;-0.70;99.90;;;;;;5014249;28;20046;-76
2022/04/03 03:40:55;;;;;;;28.13;21.20;;;-0.70;99.90;;;;;;5012833;28;20489;-76
2022/04/03 03:43:21;;;;;;;26.27;20.60;;;-0.70;99.90;;;;;;5014275;28;20510;-76
2022/04/03 03:45:46;;;;;;;29.53;21.43;;;-0.70;99.90;;;;;;5013972;28;20455;-76
2022/04/03 03:48:12;;;;;;;26.83;20.93;;;-0.70;99.90;;;;;;5012399;28;20058;-76
2022/04/03 03:50:38;;;;;;;26.73;20.50;;;-0.70;99.90;;;;;;5013904;28;20510;-76
2022/04/03 03:53:04;;;;;;;25.97;21.13;;;-0.70;99.90;;;;;;5013763;28;20467;-76
2022/04/03 03:55:30;;;;;;;27.10;20.07;;;-0.60;99.90;;;;;;5013916;28;20135;-76
2022/04/03 03:57:56;;;;;;;27.17;19.77;;;-0.60;99.90;;;;;;5013451;28;20101;-76
2022/04/03 04:00:21;;;;;;;29.10;22.30;;;-0.70;99.90;;;;;;5013193;28;20075;-76
2022/04/03 04:02:47;;;;;;;27.63;21.20;;;-0.70;99.90;;;;;;5013696;28;20034;-76
2022/04/03 04:05:12;;;;;;;31.50;21.60;;;-0.70;99.90;;;;;;5013389;28;20051;-76
2022/04/03 04:07:46;;;;;;;29.90;22.00;;;-0.70;99.90;;;;;;5013837;28;20048;-76
2022/04/03 04:10:14;;;;;;;30.37;21.10;;;-0.70;99.90;;;;;;5014261;28;20115;-76
2022/04/03 04:12:41;;;;;;;32.00;22.60;;;-0.70;99.90;;;;;;5012606;28;20041;-76
2022/04/03 04:15:08;;;;;;;27.23;21.43;;;-0.70;99.90;;;;;;5027277;28;20084;-77
2022/04/03 04:17:38;;;;;;;29.43;22.07;;;-0.70;99.90;;;;;;5013542;28;20087;-77
2022/04/03 04:20:12;;;;;;;31.07;22.83;;;-0.70;99.90;;;;;;5012817;28;20040;-76
2022/04/03 04:22:42;;;;;;;26.80;21.70;;;-0.70;99.90;;;;;;5004563;28;20023;-76
2022/04/03 04:25:09;;;;;;;27.57;21.27;;;-0.70;99.90;;;;;;4993583;28;20085;-77
2022/04/03 04:27:35;;;;;;;28.57;21.63;;;-0.70;99.90;;;;;;4994358;28;20089;-77
2022/04/03 04:30:01;;;;;;;30.10;22.07;;;-0.70;99.90;;;;;;4999266;28;20033;-77
2022/04/03 04:32:26;;;;;;;29.70;21.97;;;-0.70;99.90;;;;;;5016121;28;20405;-76
2022/04/03 04:34:52;;;;;;;29.20;21.83;;;-0.70;99.90;;;;;;5022020;28;20022;-77
2022/04/03 04:37:18;;;;;;;29.30;21.73;;;-0.80;99.90;;;;;;5021746;28;20021;-77
2022/04/03 04:39:45;;;;;;;30.60;21.67;;;-0.80;99.90;;;;;;5029631;28;20083;-77
2022/04/03 04:42:12;;;;;;;30.40;22.03;;;-0.80;99.90;;;;;;5023187;28;20025;-77
2022/04/03 04:44:38;;;;;;;26.33;21.50;;;-0.70;99.90;;;;;;5028517;28;20048;-77
2022/04/03 04:47:04;;;;;;;28.73;21.07;;;-0.70;99.90;;;;;;5026020;28;20413;-77
2022/04/03 04:49:29;;;;;;;26.03;20.40;;;-0.70;99.90;;;;;;5029617;28;20049;-77
2022/04/03 04:51:55;;;;;;;29.67;21.33;;;-0.70;99.90;;;;;;5024785;28;20896;-77
2022/04/03 04:54:20;;;;;;;26.73;21.63;;;-0.70;99.90;;;;;;5022417;28;20096;-77
2022/04/03 04:56:47;;;;;;;27.33;20.70;;;-0.60;99.90;;;;;;5025541;28;20033;-77
2022/04/03 04:59:13;;;;;;;25.00;19.43;;;-0.60;99.90;;;;;;5022470;28;20022;-77
2022/04/03 05:01:39;;;;;;;24.23;18.67;;;-0.50;99.90;;;;;;5020055;28;20029;-77
2022/04/03 05:04:05;;;;;;;26.97;18.93;;;-0.60;99.90;;;;;;5038143;28;20017;-77
2022/04/03 05:06:34;;;;;;;28.67;19.10;;;-0.50;99.90;;;;;;5025417;28;20049;-77
2022/04/03 05:08:59;;;;;;;27.17;20.40;;;-0.50;99.90;;;;;;5021681;28;20025;-78
2022/04/03 05:11:25;;;;;;;26.13;19.63;;;-0.50;99.90;;;;;;5019642;28;20036;-77
2022/04/03 05:13:51;;;;;;;24.97;19.93;;;-0.60;99.90;;;;;;5024352;28;20030;-77
2022/04/03 05:16:17;;;;;;;26.03;19.37;;;-0.50;99.90;;;;;;5024791;28;20100;-78
2022/04/03 05:18:42;;;;;;;23.40;19.47;;;-0.50;99.90;;;;;;5023295;28;20021;-77
2022/04/03 05:21:10;;;;;;;27.10;20.17;;;-0.50;99.90;;;;;;5016455;28;20446;-77
2022/04/03 05:23:37;;;;;;;24.40;19.07;;;-0.50;99.90;;;;;;5022441;28;20467;-78
2022/04/03 05:26:03;;;;;;;25.03;19.67;;;-0.50;99.90;;;;;;5029464;28;20536;-77
2022/04/03 05:28:29;;;;;;;28.23;18.90;;;-0.50;99.90;;;;;;5014387;28;20022;-78
2022/04/03 05:30:55;;;;;;;21.07;17.63;;;-0.50;99.90;;;;;;5025299;28;20076;-77
2022/04/03 05:33:21;;;;;;;25.80;19.97;;;-0.30;99.90;;;;;;5024964;28;20091;-77
2022/04/03 05:35:46;;;;;;;25.93;18.67;;;-0.40;99.90;;;;;;5023010;28;20036;-77
2022/04/03 05:38:12;;;;;;;23.93;18.80;;;-0.30;99.90;;;;;;5019473;28;20789;-78
2022/04/03 05:40:38;;;;;;;25.63;18.60;;;-0.40;99.90;;;;;;5022945;28;20026;-76
2022/04/03 05:43:03;;;;;;;25.13;18.87;;;-0.30;99.90;;;;;;5002795;28;20056;-77
2022/04/03 05:45:29;;;;;;;23.50;19.43;;;-0.30;99.90;;;;;;5018129;28;20070;-77
2022/04/03 05:47:55;;;;;;;28.13;19.53;;;-0.30;99.90;;;;;;5017393;28;20033;-77
2022/04/03 05:50:20;;;;;;;24.77;17.70;;;-0.30;99.90;;;;;;5014109;28;20106;-77
2022/04/03 05:52:48;;;;;;;25.07;18.00;;;-0.30;99.90;;;;;;5013065;28;20037;-77
2022/04/03 05:55:16;;;;;;;23.67;18.87;;;-0.30;99.90;;;;;;5017391;28;20835;-76
2022/04/03 05:57:43;;;;;;;23.87;18.27;;;-0.30;99.90;;;;;;5014680;28;20432;-76
2022/04/03 06:00:12;;;;;;;27.53;19.03;;;-0.30;99.90;;;;;;5018791;28;20030;-76
2022/04/03 06:02:53;;;;;;;24.37;18.13;;;-0.30;99.90;;;;;;5018263;28;20029;-76
2022/04/03 06:05:22;;;;;;;22.00;16.73;;;-0.20;99.90;;;;;;5015822;28;20364;-76
2022/04/03 06:07:47;;;;;;;23.80;16.87;;;-0.20;99.90;;;;;;5026596;28;20022;-76
2022/04/03 06:10:14;;;;;;;22.27;16.47;;;-0.10;99.90;;;;;;5017403;28;20037;-76
2022/04/03 06:13:00;;;;;;;22.40;16.73;;;0.00;99.90;;;;;;5010776;28;20022;-76
2022/04/03 06:15:33;;;;;;;22.67;16.40;;;0.00;99.90;;;;;;5016724;28;20025;-76
2022/04/03 06:17:59;;;;;;;20.00;15.67;;;0.00;99.90;;;;;;5012168;28;20107;-76
2022/04/03 06:20:25;;;;;;;20.20;14.50;;;0.10;99.90;;;;;;5017270;28;20497;-76
2022/04/03 06:22:51;;;;;;;20.77;15.87;;;0.20;99.90;;;;;;5009784;28;20025;-76
2022/04/03 06:25:18;;;;;;;23.40;17.00;;;0.20;99.90;;;;;;5016006;28;20021;-76
2022/04/03 06:27:43;;;;;;;30.13;22.07;;;0.20;99.90;;;;;;5012942;28;20029;-76
2022/04/03 06:30:10;;;;;;;21.17;15.73;;;0.20;99.90;;;;;;5014456;28;20089;-76
2022/04/03 06:32:35;;;;;;;21.80;15.73;;;0.10;99.90;;;;;;5010087;28;20042;-76
2022/04/03 06:35:01;;;;;;;23.00;16.43;;;0.20;99.90;;;;;;5009437;28;20478;-76
2022/04/03 06:37:27;;;;;;;18.97;15.07;;;0.30;99.90;;;;;;5012279;28;20355;-76
2022/04/03 06:39:52;;;;;;;20.43;14.17;;;0.50;99.90;;;;;;5013280;28;20458;-76
2022/04/03 06:42:18;;;;;;;19.57;14.90;;;0.50;99.90;;;;;;5013496;28;20030;-75
2022/04/03 06:44:44;;;;;;;18.47;14.57;;;0.60;99.90;;;;;;5011989;28;20744;-76
2022/04/03 06:47:10;;;;;;;20.23;14.43;;;0.60;99.90;;;;;;5013463;28;20028;-76
2022/04/03 06:49:36;;;;;;;20.10;14.73;;;0.50;99.90;;;;;;5016395;28;20018;-76
2022/04/03 06:52:02;;;;;;;19.70;14.90;;;0.50;99.90;;;;;;5018718;28;20517;-76
2022/04/03 06:54:27;;;;;;;18.07;14.73;;;0.60;99.90;;;;;;5019279;28;20414;-76
2022/04/03 06:56:53;;;;;;;28.57;19.53;;;0.50;99.90;;;;;;5008911;28;20022;-76
2022/04/03 06:59:19;;;;;;;19.87;13.33;;;0.70;99.90;;;;;;5016329;28;20017;-76
2022/04/03 07:01:45;;;;;;;16.70;13.23;;;0.80;99.90;;;;;;5013170;28;20026;-76
2022/04/03 07:04:10;;;;;;;14.07;11.17;;;0.80;99.90;;;;;;5006485;28;20033;-76
2022/04/03 07:06:36;;;;;;;15.77;12.30;;;0.70;99.90;;;;;;5008082;28;20180;-76
2022/04/03 07:09:02;;;;;;;15.67;12.93;;;0.70;99.90;;;;;;5008290;28;20068;-75
2022/04/03 07:11:27;;;;;;;16.77;13.03;;;0.70;99.90;;;;;;5009885;28;20487;-76
2022/04/03 07:13:53;;;;;;;19.50;13.20;;;0.70;99.90;;;;;;5010074;28;20037;-76
2022/04/03 07:16:18;;;;;;;14.87;11.63;;;0.70;99.90;;;;;;5000497;28;20038;-76
2022/04/03 07:18:44;;;;;;;20.37;15.53;;;1.00;99.90;;;;;;5011959;28;20156;-76
2022/04/03 07:21:09;;;;;;;13.60;11.73;;;1.20;99.90;;;;;;5026045;28;20108;-76
2022/04/03 07:23:35;;;;;;;16.03;11.73;;;1.30;99.90;;;;;;5020287;28;20036;-76
2022/04/03 07:26:01;;;;;;;19.60;11.97;;;1.50;99.90;;;;;;5024201;28;20109;-75
2022/04/03 07:28:26;;;;;;;15.07;11.83;;;1.50;99.90;;;;;;5029627;28;20088;-75
2022/04/03 07:30:52;;;;;;;17.77;12.33;;;1.50;99.90;;;;;;5031122;28;20497;-76
2022/04/03 07:33:21;;;;;;;15.57;12.00;;;1.40;99.90;;;;;;5018652;28;20132;-76
2022/04/03 07:35:49;;;;;;;14.10;11.80;;;1.40;99.90;;;;;;5010538;28;20037;-76
2022/04/03 07:38:15;;;;;;;17.97;11.37;;;1.40;99.90;;;;;;5008883;28;20030;-76
2022/04/03 07:40:40;;;;;;;15.60;11.83;;;1.60;99.90;;;;;;5010308;28;20088;-76
2022/04/03 07:43:06;;;;;;;14.47;11.67;;;1.70;99.90;;;;;;5010396;28;20034;-76
2022/04/03 07:45:32;;;;;;;15.53;11.60;;;1.80;99.90;;;;;;5010047;28;20057;-76
2022/04/03 07:47:58;;;;;;;16.33;11.63;;;1.90;99.90;;;;;;5009745;28;20057;-76
2022/04/03 07:50:25;;;;;;;14.93;10.33;;;2.00;99.90;;;;;;5010223;28;20517;-76
2022/04/03 07:52:51;;;;;;;14.00;11.03;;;2.10;99.90;;;;;;5010736;28;20472;-76
2022/04/03 07:55:17;;;;;;;15.80;11.57;;;2.00;99.90;;;;;;5008711;28;20033;-76
2022/04/03 07:57:43;;;;;;;12.90;9.93;;;2.10;99.90;;;;;;5008738;28;20029;-76
2022/04/03 08:00:11;;;;;;;13.93;10.30;;;2.20;99.90;;;;;;5009891;28;20034;-76
2022/04/03 08:02:38;;;;;;;13.30;10.37;;;2.20;99.90;;;;;;5024529;28;20533;-76
2022/04/03 08:05:05;;;;;;;14.37;9.90;;;2.10;99.90;;;;;;5009824;28;20470;-76
2022/04/03 08:07:43;;;;;;;12.93;9.80;;;2.30;99.90;;;;;;5009781;28;20390;-76
2022/04/03 08:10:09;;;;;;;13.67;9.77;;;2.40;99.90;;;;;;5009674;28;20494;-76
2022/04/03 08:12:36;;;;;;;14.70;10.37;;;2.40;99.90;;;;;;5009893;28;20033;-76
2022/04/03 08:15:04;;;;;;;12.33;9.50;;;2.20;99.90;;;;;;5009376;28;20044;-76
2022/04/03 08:17:29;;;;;;;12.43;9.93;;;2.40;99.90;;;;;;5007835;28;20109;-76
2022/04/03 08:19:55;;;;;;;12.30;9.10;;;2.50;99.90;;;;;;5009478;28;20129;-76
2022/04/03 08:22:20;;;;;;;10.33;9.03;;;2.70;99.90;;;;;;5004806;28;20040;-76
2022/04/03 08:24:46;;;;;;;14.20;10.47;;;2.70;99.90;;;;;;5007702;28;20030;-76
2022/04/03 08:27:12;;;;;;;13.87;10.03;;;2.60;99.90;;;;;;5009520;28;20068;-76
2022/04/03 08:29:38;;;;;;;14.87;12.53;;;2.40;99.90;;;;;;5008564;28;20029;-76
2022/04/03 08:32:04;;;;;;;12.93;10.87;;;2.30;99.90;;;;;;5009085;28;20049;-76
2022/04/03 08:34:29;;;;;;;14.07;10.80;;;2.20;99.90;;;;;;5009224;28;20026;-76
2022/04/03 08:36:55;;;;;;;12.60;9.63;;;2.20;99.90;;;;;;5007732;28;20084;-75
2022/04/03 08:39:20;;;;;;;16.63;10.43;;;2.40;99.90;;;;;;5009117;28;20410;-75
2022/04/03 08:41:47;;;;;;;21.20;14.37;;;2.50;99.90;;;;;;5007846;28;20038;-75
2022/04/03 08:44:12;;;;;;;13.67;10.23;;;2.40;99.90;;;;;;5024324;28;20036;-76
2022/04/03 08:46:42;;;;;;;15.33;10.00;;;2.20;99.90;;;;;;5008977;28;20029;-75
2022/04/03 08:49:08;;;;;;;16.03;10.60;;;2.50;99.90;;;;;;5007706;28;20025;-75
2022/04/03 08:51:37;;;;;;;16.77;10.40;;;2.60;99.90;;;;;;5024097;28;20340;-75
2022/04/03 08:54:04;;;;;;;10.43;9.23;;;2.60;99.90;;;;;;5007440;28;20483;-75
2022/04/03 08:56:30;;;;;;;13.83;9.47;;;2.70;99.90;;;;;;5024065;28;20049;-75
2022/04/03 08:58:55;;;;;;;12.47;8.93;;;2.70;99.90;;;;;;5023917;28;20310;-75
2022/04/03 09:01:21;;;;;;;13.43;10.00;;;2.90;99.90;;;;;;5007380;28;20483;-75
2022/04/03 09:03:47;;;;;;;10.83;9.63;;;2.90;99.90;;;;;;5009205;28;20096;-75
2022/04/03 09:06:15;;;;;;;11.17;8.43;;;2.90;99.90;;;;;;5009083;28;20125;-75
2022/04/03 09:08:41;;;;;;;11.17;8.87;;;3.00;99.90;;;;;;5009016;28;20085;-75
2022/04/03 09:11:07;;;;;;;12.80;9.40;;;2.90;99.90;;;;;;5007320;28;20040;-75
2022/04/03 09:13:34;;;;;;;9.97;8.53;;;3.00;99.90;;;;;;5020348;28;20037;-75
2022/04/03 09:16:00;;;;;;;12.50;8.33;;;3.20;99.90;;;;;;5027224;28;20398;-75
2022/04/03 09:18:52;;;;;;;9.23;7.80;;;2.90;99.90;;;;;;5024901;28;20391;-75
2022/04/03 09:21:23;;;;;;;10.83;7.43;;;2.90;99.90;;;;;;5007235;28;20026;-75
2022/04/03 09:24:12;;;;;;;9.47;6.60;;;3.00;99.90;;;;;;4989826;28;20034;-76
2022/04/03 09:26:42;;;;;;;9.73;6.47;;;3.10;99.90;;;;;;4996092;28;20052;-75
2022/04/03 09:29:15;;;;;;;8.03;6.20;;;3.20;99.90;;;;;;5008730;28;20422;-75
2022/04/03 09:31:44;;;;;;;9.10;6.97;;;3.20;99.90;;;;;;5008399;28;20125;-75
2022/04/03 09:34:20;;;;;;;11.93;8.23;;;3.20;99.90;;;;;;5006847;28;20036;-75
2022/04/03 09:37:00;;;;;;;10.43;8.07;;;3.20;99.90;;;;;;5008334;28;20080;-75
2022/04/03 09:39:27;;;;;;;14.50;8.20;;;3.20;99.90;;;;;;5023319;28;20044;-75
2022/04/03 09:42:03;;;;;;;11.27;8.10;;;3.10;99.90;;;;;;5006810;28;20435;-76
2022/04/03 09:44:35;;;;;;;12.00;9.10;;;3.30;99.90;;;;;;5008148;28;20115;-76
2022/04/03 09:47:20;;;;;;;10.90;7.73;;;3.30;99.90;;;;;;5023267;28;20564;-76
2022/04/03 09:49:55;;;;;;;11.30;7.47;;;3.50;99.90;;;;;;5008183;28;20030;-76
2022/04/03 09:52:41;;;;;;;10.57;7.82;;;3.50;99.90;;;;;;5006946;28;20042;-76
2022/04/03 09:55:07;;;;;;;10.48;7.10;;;3.50;99.90;;;;;;5006541;28;20034;-76
2022/04/03 09:57:33;;;;;;;7.90;6.93;;;3.80;99.90;;;;;;5008252;28;20475;-76
2022/04/03 09:59:59;;;;;;;8.83;6.50;;;4.00;99.90;;;;;;5007617;28;20112;-76
2022/04/03 10:02:24;;;;;;;8.93;6.27;;;4.00;99.90;;;;;;5006601;28;20100;-76
2022/04/03 10:04:53;;;;;;;7.63;5.10;;;4.10;99.90;;;;;;5010833;28;20033;-76
2022/04/03 10:07:20;;;;;;;8.07;5.83;;;4.30;99.90;;;;;;5026601;28;20037;-76
2022/04/03 10:09:50;;;;;;;8.83;5.83;;;4.10;99.90;;;;;;5027585;28;20021;-76
2022/04/03 10:12:20;;;;;;;10.13;5.50;;;4.00;99.90;;;;;;5027996;28;20083;-76
2022/04/03 10:14:49;;;;;;;10.50;6.53;;;3.90;99.90;;;;;;5008159;28;20030;-76
2022/04/03 10:17:16;;;;;;;9.40;6.57;;;3.90;99.90;;;;;;5008347;28;20041;-76
2022/04/03 10:19:42;;;;;;;9.47;6.43;;;3.90;99.90;;;;;;5022516;28;20030;-76
2022/04/03 10:22:22;;;;;;;11.17;6.50;;;3.80;99.90;;;;;;5019785;28;20029;-77
2022/04/03 10:24:52;;;;;;;10.43;6.97;;;3.80;99.90;;;;;;4999145;28;20105;-75
2022/04/03 10:27:29;;;;;;;10.20;6.23;;;3.70;99.90;;;;;;5038114;28;20125;-76
2022/04/03 10:29:57;;;;;;;11.07;7.10;;;3.70;99.90;;;;;;5045289;28;20088;-76
2022/04/03 10:32:30;;;;;;;10.07;7.33;;;3.90;99.90;;;;;;5030169;28;20067;-76
2022/04/03 10:35:20;;;;;;;8.93;6.80;;;4.00;99.90;;;;;;5045701;28;20030;-76
2022/04/03 10:37:45;;;;;;;9.30;6.27;;;3.80;99.90;;;;;;5031028;28;20053;-76
2022/04/03 10:40:16;;;;;;;7.57;6.07;;;4.00;99.90;;;;;;5027073;28;20521;-76
2022/04/03 10:43:03;;;;;;;8.63;6.53;;;3.90;99.90;;;;;;5011031;28;20411;-76
2022/04/03 10:45:32;;;;;;;9.20;7.27;;;3.70;99.90;;;;;;5008515;28;20482;-76
2022/04/03 10:48:28;;;;;;;8.70;6.70;;;3.60;99.90;;;;;;5010563;28;20436;-76
2022/04/03 10:50:58;;;;;;;8.50;5.90;;;3.90;99.90;;;;;;5009764;28;20038;-77
2022/04/03 10:53:26;;;;;;;8.10;6.20;;;4.30;99.90;;;;;;5011248;28;20090;-76
2022/04/03 10:55:55;;;;;;;16.90;7.57;;;4.50;99.90;;;;;;5013738;28;20475;-76
2022/04/03 10:58:21;;;;;;;7.90;5.30;;;4.60;99.90;;;;;;5013986;28;20368;-75
2022/04/03 11:00:48;;;;;;;8.63;5.60;;;4.70;99.90;;;;;;5013934;28;20030;-75
2022/04/03 11:03:13;;;;;;;7.97;5.70;;;4.50;99.90;;;;;;5013942;28;20228;-75
2022/04/03 11:05:40;;;;;;;12.83;7.20;;;4.20;99.90;;;;;;5008413;28;20479;-76
2022/04/03 11:08:15;;;;;;;8.23;5.73;;;4.00;99.90;;;;;;5006219;28;20387;-76
2022/04/03 11:10:54;;;;;;;9.77;5.63;;;3.60;99.90;;;;;;5005721;28;20030;-76
2022/04/03 11:13:23;;;;;;;7.93;5.83;;;3.30;99.90;;;;;;5006262;28;20728;-76
2022/04/03 11:15:53;;;;;;;5.93;4.80;;;3.10;99.90;;;;;;5005718;28;20035;-76
2022/04/03 11:18:42;;;;;;;8.37;5.03;;;3.50;99.90;;;;;;5003385;28;20088;-76
2022/04/03 11:21:11;;;;;;;5.13;4.37;;;3.90;99.90;;;;;;5007677;28;20435;-76
2022/04/03 11:23:47;;;;;;;7.67;3.97;;;4.00;99.90;;;;;;5009658;28;20049;-76
2022/04/03 11:26:13;;;;;;;6.70;3.70;;;4.00;99.90;;;;;;5004709;28;20589;-76
2022/04/03 11:28:39;;;;;;;7.30;3.50;;;4.00;99.90;;;;;;5008510;28;20025;-76
2022/04/03 11:31:06;;;;;;;4.43;3.60;;;4.00;99.90;;;;;;4999746;28;20030;-76
2022/04/03 11:33:32;;;;;;;6.80;3.80;;;3.90;99.90;;;;;;5001835;28;20045;-76
2022/04/03 11:36:06;;;;;;;8.47;4.10;;;3.30;99.90;;;;;;4997631;28;20077;-76
2022/04/03 11:38:36;;;;;;;5.97;3.60;;;3.20;99.90;;;;;;5011667;28;20030;-76
2022/04/03 11:41:06;;;;;;;5.77;3.63;;;3.20;99.90;;;;;;5013296;28;20038;-76
2022/04/03 11:43:33;;;;;;;6.17;3.77;;;3.60;99.90;;;;;;5011118;28;20029;-76
2022/04/03 11:46:01;;;;;;;4.83;3.40;;;4.10;99.90;;;;;;5008735;28;20320;-76
2022/04/03 11:48:34;;;;;;;4.37;3.30;;;4.40;99.90;;;;;;5008066;28;20157;-74
2022/04/03 11:51:15;;;;;;;5.55;3.40;;;4.30;99.90;;;;;;4995654;28;20034;-74
2022/04/03 11:53:44;;;;;;;6.43;3.97;;;4.30;99.90;;;;;;5044079;28;20033;-76
2022/04/03 11:56:13;;;;;;;6.20;3.70;;;4.30;99.90;;;;;;5012622;28;20030;-76
2022/04/03 11:58:48;;;;;;;5.80;4.03;;;4.10;99.90;;;;;;5012884;28;20029;-77
2022/04/03 12:01:22;;;;;;;5.60;3.50;;;3.90;99.90;;;;;;5012962;28;20026;-77
2022/04/03 12:03:48;;;;;;;6.60;3.55;;;4.50;99.90;;;;;;5006173;28;20129;-75
2022/04/03 12:06:18;;;;;;;5.03;3.20;;;4.90;99.90;;;;;;5021059;28;20529;-75
2022/04/03 12:08:46;;;;;;;5.07;3.60;;;5.40;99.90;;;;;;5014746;28;20026;-76
2022/04/03 12:11:26;;;;;;;5.17;3.50;;;5.40;99.90;;;;;;5014906;28;20022;-76
2022/04/03 12:13:57;;;;;;;4.50;3.70;;;5.80;99.90;;;;;;5014378;28;20026;-76
2022/04/03 12:16:25;;;;;;;5.17;3.60;;;5.60;99.90;;;;;;5012642;28;20033;-76
2022/04/03 12:18:56;;;;;;;5.43;3.93;;;5.30;99.90;;;;;;5013519;28;20029;-75
2022/04/03 12:21:57;;;;;;;5.83;3.57;;;5.40;99.90;;;;;;5006229;28;20164;-77
2022/04/03 12:24:28;;;;;;;5.13;3.47;;;5.40;99.90;;;;;;5007574;28;20040;-77
2022/04/03 12:27:12;;;;;;;6.87;4.23;;;5.10;99.90;;;;;;5008897;28;20493;-77
2022/04/03 12:29:39;;;;;;;6.50;4.40;;;4.70;99.90;;;;;;5011438;28;20567;-75
2022/04/03 12:32:10;;;;;;;6.13;4.07;;;4.50;99.90;;;;;;5013157;28;20117;-80
2022/04/03 12:34:40;;;;;;;7.03;4.43;;;4.50;99.90;;;;;;5011425;28;20112;-76
2022/04/03 12:37:07;;;;;;;5.47;3.77;;;4.40;99.90;;;;;;5006660;28;20032;-78
2022/04/03 12:39:41;;;;;;;6.07;3.87;;;4.10;99.90;;;;;;5023731;28;20060;-76
2022/04/03 12:42:25;;;;;;;5.55;3.95;;;3.90;99.90;;;;;;5009601;28;20029;-77